Webcam Flughafen St.Gallen-Altenrhein

Live-Bilder und Zeitraffer LSZR / ACH.

 

Live aus Altenrhein
LIVE
LSZR 280420Z AUTO VRB02KT 9999 NSC 10/08 Q1029
Zeitraffer heute
2020-05-28 00:13:53
LSZR 272150Z AUTO VRB02KT CAVOK 12/07 Q1030